sensor_id;sensor_type;location;lat;lon;timestamp;P1;durP1;ratioP1;P2;durP2;ratioP2
3259;SDS011;68938;48.150;14.004;2023-05-10T00:01:44;7.80;;;7.00;;
3259;SDS011;68938;48.150;14.004;2023-05-10T00:04:10;7.40;;;6.90;;
3259;SDS011;68938;48.150;14.004;2023-05-10T00:06:38;6.73;;;6.17;;
3259;SDS011;68938;48.150;14.004;2023-05-10T00:09:05;6.90;;;6.30;;
3259;SDS011;68938;48.150;14.004;2023-05-10T00:11:33;6.80;;;6.20;;
3259;SDS011;68938;48.150;14.004;2023-05-10T00:14:00;8.00;;;7.30;;
3259;SDS011;68938;48.150;14.004;2023-05-10T00:16:27;8.50;;;7.67;;
3259;SDS011;68938;48.150;14.004;2023-05-10T00:18:54;6.83;;;6.27;;
3259;SDS011;68938;48.150;14.004;2023-05-10T00:21:21;7.43;;;6.80;;
3259;SDS011;68938;48.150;14.004;2023-05-10T00:23:48;7.87;;;7.20;;
3259;SDS011;68938;48.150;14.004;2023-05-10T00:26:15;7.33;;;6.73;;
3259;SDS011;68938;48.150;14.004;2023-05-10T00:28:41;7.40;;;6.80;;
3259;SDS011;68938;48.150;14.004;2023-05-10T00:31:08;7.13;;;6.43;;
3259;SDS011;68938;48.150;14.004;2023-05-10T00:33:35;6.93;;;6.43;;
3259;SDS011;68938;48.150;14.004;2023-05-10T00:36:02;8.20;;;7.50;;
3259;SDS011;68938;48.150;14.004;2023-05-10T00:38:30;7.60;;;6.90;;
3259;SDS011;68938;48.150;14.004;2023-05-10T00:40:56;6.57;;;5.97;;
3259;SDS011;68938;48.150;14.004;2023-05-10T00:43:23;7.80;;;6.63;;
3259;SDS011;68938;48.150;14.004;2023-05-10T00:45:50;7.43;;;6.93;;
3259;SDS011;68938;48.150;14.004;2023-05-10T00:48:18;6.83;;;6.23;;
3259;SDS011;68938;48.150;14.004;2023-05-10T00:50:45;7.57;;;6.73;;
3259;SDS011;68938;48.150;14.004;2023-05-10T00:53:12;7.27;;;6.77;;
3259;SDS011;68938;48.150;14.004;2023-05-10T00:55:40;8.37;;;7.57;;
3259;SDS011;68938;48.150;14.004;2023-05-10T00:58:08;6.80;;;6.20;;
3259;SDS011;68938;48.150;14.004;2023-05-10T01:00:35;7.77;;;7.07;;
3259;SDS011;68938;48.150;14.004;2023-05-10T01:03:02;8.80;;;8.00;;
3259;SDS011;68938;48.150;14.004;2023-05-10T01:05:29;8.37;;;7.30;;
3259;SDS011;68938;48.150;14.004;2023-05-10T01:07:56;6.80;;;6.20;;
3259;SDS011;68938;48.150;14.004;2023-05-10T01:10:23;7.67;;;6.97;;
3259;SDS011;68938;48.150;14.004;2023-05-10T01:12:50;7.23;;;6.50;;
3259;SDS011;68938;48.150;14.004;2023-05-10T01:15:17;7.47;;;6.83;;
3259;SDS011;68938;48.150;14.004;2023-05-10T01:17:46;7.40;;;6.73;;
3259;SDS011;68938;48.150;14.004;2023-05-10T01:20:14;5.93;;;5.43;;
3259;SDS011;68938;48.150;14.004;2023-05-10T01:37:25;7.77;;;7.07;;
3259;SDS011;68938;48.150;14.004;2023-05-10T01:40:17;8.27;;;7.57;;
3259;SDS011;68938;48.150;14.004;2023-05-10T01:42:55;8.27;;;7.57;;
3259;SDS011;68938;48.150;14.004;2023-05-10T01:45:46;8.50;;;7.60;;
3259;SDS011;68938;48.150;14.004;2023-05-10T01:48:47;7.53;;;6.83;;
3259;SDS011;68938;48.150;14.004;2023-05-10T01:51:19;9.43;;;8.00;;
3259;SDS011;68938;48.150;14.004;2023-05-10T01:53:51;8.43;;;7.83;;
3259;SDS011;68938;48.150;14.004;2023-05-10T01:56:26;10.20;;;8.17;;
3259;SDS011;68938;48.150;14.004;2023-05-10T01:58:56;7.80;;;7.00;;
3259;SDS011;68938;48.150;14.004;2023-05-10T02:01:26;9.30;;;8.50;;
3259;SDS011;68938;48.150;14.004;2023-05-10T02:03:54;13.80;;;8.07;;
3259;SDS011;68938;48.150;14.004;2023-05-10T02:06:23;8.83;;;8.03;;
3259;SDS011;68938;48.150;14.004;2023-05-10T02:08:52;7.80;;;6.97;;
3259;SDS011;68938;48.150;14.004;2023-05-10T02:11:20;8.90;;;8.10;;
3259;SDS011;68938;48.150;14.004;2023-05-10T02:13:49;9.97;;;9.10;;
3259;SDS011;68938;48.150;14.004;2023-05-10T02:16:18;8.87;;;7.97;;
3259;SDS011;68938;48.150;14.004;2023-05-10T02:18:50;9.10;;;8.17;;
3259;SDS011;68938;48.150;14.004;2023-05-10T02:21:20;9.33;;;8.37;;
3259;SDS011;68938;48.150;14.004;2023-05-10T02:23:48;10.33;;;8.53;;
3259;SDS011;68938;48.150;14.004;2023-05-10T02:26:18;9.40;;;8.40;;
3259;SDS011;68938;48.150;14.004;2023-05-10T02:28:48;9.07;;;8.27;;
3259;SDS011;68938;48.150;14.004;2023-05-10T02:31:17;8.87;;;8.13;;
3259;SDS011;68938;48.150;14.004;2023-05-10T02:33:45;8.90;;;8.00;;
3259;SDS011;68938;48.150;14.004;2023-05-10T02:36:14;14.90;;;9.70;;
3259;SDS011;68938;48.150;14.004;2023-05-10T02:38:43;9.37;;;8.47;;
3259;SDS011;68938;48.150;14.004;2023-05-10T02:41:11;10.43;;;9.43;;
3259;SDS011;68938;48.150;14.004;2023-05-10T02:43:38;12.10;;;10.37;;
3259;SDS011;68938;48.150;14.004;2023-05-10T02:46:07;11.73;;;10.63;;
3259;SDS011;68938;48.150;14.004;2023-05-10T02:48:34;17.30;;;9.40;;
3259;SDS011;68938;48.150;14.004;2023-05-10T02:51:03;9.57;;;8.57;;
3259;SDS011;68938;48.150;14.004;2023-05-10T02:53:34;8.67;;;7.97;;
3259;SDS011;68938;48.150;14.004;2023-05-10T02:56:05;9.50;;;8.60;;
3259;SDS011;68938;48.150;14.004;2023-05-10T02:58:40;10.97;;;9.90;;
3259;SDS011;68938;48.150;14.004;2023-05-10T03:01:08;10.00;;;9.00;;
3259;SDS011;68938;48.150;14.004;2023-05-10T03:03:35;10.07;;;9.17;;
3259;SDS011;68938;48.150;14.004;2023-05-10T03:06:02;10.60;;;9.50;;
3259;SDS011;68938;48.150;14.004;2023-05-10T03:08:29;10.77;;;9.77;;
3259;SDS011;68938;48.150;14.004;2023-05-10T03:14:03;12.83;;;9.27;;
3259;SDS011;68938;48.150;14.004;2023-05-10T03:20:08;10.67;;;9.77;;
3259;SDS011;68938;48.150;14.004;2023-05-10T03:22:38;9.27;;;8.47;;
3259;SDS011;68938;48.150;14.004;2023-05-10T03:25:14;11.00;;;9.93;;
3259;SDS011;68938;48.150;14.004;2023-05-10T03:27:43;11.33;;;10.20;;
3259;SDS011;68938;48.150;14.004;2023-05-10T03:30:11;10.80;;;9.70;;
3259;SDS011;68938;48.150;14.004;2023-05-10T03:32:40;11.70;;;10.60;;
3259;SDS011;68938;48.150;14.004;2023-05-10T03:35:07;11.83;;;10.63;;
3259;SDS011;68938;48.150;14.004;2023-05-10T03:37:38;10.13;;;9.20;;
3259;SDS011;68938;48.150;14.004;2023-05-10T03:40:05;11.33;;;10.03;;
3259;SDS011;68938;48.150;14.004;2023-05-10T03:42:33;10.80;;;9.90;;
3259;SDS011;68938;48.150;14.004;2023-05-10T03:45:00;11.13;;;10.03;;
3259;SDS011;68938;48.150;14.004;2023-05-10T03:47:27;10.27;;;9.37;;
3259;SDS011;68938;48.150;14.004;2023-05-10T03:49:54;9.97;;;9.10;;
3259;SDS011;68938;48.150;14.004;2023-05-10T03:52:21;10.20;;;8.63;;
3259;SDS011;68938;48.150;14.004;2023-05-10T03:54:48;10.27;;;9.37;;
3259;SDS011;68938;48.150;14.004;2023-05-10T03:57:15;11.17;;;10.17;;
3259;SDS011;68938;48.150;14.004;2023-05-10T03:59:42;11.50;;;9.37;;
3259;SDS011;68938;48.150;14.004;2023-05-10T04:02:09;10.80;;;9.80;;
3259;SDS011;68938;48.150;14.004;2023-05-10T04:04:36;11.00;;;9.90;;
3259;SDS011;68938;48.150;14.004;2023-05-10T04:07:03;11.47;;;10.27;;
3259;SDS011;68938;48.150;14.004;2023-05-10T04:09:30;10.57;;;9.57;;
3259;SDS011;68938;48.150;14.004;2023-05-10T04:11:58;10.73;;;9.87;;
3259;SDS011;68938;48.150;14.004;2023-05-10T04:14:25;10.73;;;9.80;;
3259;SDS011;68938;48.150;14.004;2023-05-10T04:16:52;11.40;;;10.40;;
3259;SDS011;68938;48.150;14.004;2023-05-10T04:19:19;11.57;;;10.00;;
3259;SDS011;68938;48.150;14.004;2023-05-10T04:21:46;11.20;;;10.20;;
3259;SDS011;68938;48.150;14.004;2023-05-10T04:24:13;10.43;;;9.43;;
3259;SDS011;68938;48.150;14.004;2023-05-10T04:26:40;12.13;;;10.20;;
3259;SDS011;68938;48.150;14.004;2023-05-10T04:29:07;11.33;;;10.33;;
3259;SDS011;68938;48.150;14.004;2023-05-10T04:31:34;10.70;;;9.60;;
3259;SDS011;68938;48.150;14.004;2023-05-10T04:34:01;11.97;;;10.87;;
3259;SDS011;68938;48.150;14.004;2023-05-10T04:36:28;9.47;;;8.67;;
3259;SDS011;68938;48.150;14.004;2023-05-10T04:38:55;11.57;;;10.40;;
3259;SDS011;68938;48.150;14.004;2023-05-10T04:41:22;11.23;;;9.93;;
3259;SDS011;68938;48.150;14.004;2023-05-10T04:43:49;11.17;;;10.27;;
3259;SDS011;68938;48.150;14.004;2023-05-10T04:46:16;10.07;;;9.17;;
3259;SDS011;68938;48.150;14.004;2023-05-10T04:48:43;10.50;;;9.50;;
3259;SDS011;68938;48.150;14.004;2023-05-10T04:51:10;11.03;;;10.03;;
3259;SDS011;68938;48.150;14.004;2023-05-10T04:53:37;10.70;;;9.60;;
3259;SDS011;68938;48.150;14.004;2023-05-10T04:56:04;12.30;;;10.17;;
3259;SDS011;68938;48.150;14.004;2023-05-10T04:58:32;11.47;;;10.47;;
3259;SDS011;68938;48.150;14.004;2023-05-10T05:01:08;11.30;;;10.20;;
3259;SDS011;68938;48.150;14.004;2023-05-10T05:03:35;10.90;;;9.20;;
3259;SDS011;68938;48.150;14.004;2023-05-10T05:06:03;10.13;;;9.00;;
3259;SDS011;68938;48.150;14.004;2023-05-10T05:08:31;11.83;;;10.83;;
3259;SDS011;68938;48.150;14.004;2023-05-10T05:10:57;10.23;;;9.07;;
3259;SDS011;68938;48.150;14.004;2023-05-10T05:13:24;11.27;;;10.27;;
3259;SDS011;68938;48.150;14.004;2023-05-10T05:15:51;11.60;;;10.33;;
3259;SDS011;68938;48.150;14.004;2023-05-10T05:18:18;10.30;;;9.40;;
3259;SDS011;68938;48.150;14.004;2023-05-10T05:20:45;11.33;;;10.10;;
3259;SDS011;68938;48.150;14.004;2023-05-10T05:23:12;11.63;;;10.43;;
3259;SDS011;68938;48.150;14.004;2023-05-10T05:25:39;13.53;;;10.30;;
3259;SDS011;68938;48.150;14.004;2023-05-10T05:28:06;10.87;;;9.87;;
3259;SDS011;68938;48.150;14.004;2023-05-10T05:30:33;11.43;;;9.97;;
3259;SDS011;68938;48.150;14.004;2023-05-10T05:32:59;15.63;;;10.50;;
3259;SDS011;68938;48.150;14.004;2023-05-10T05:35:26;13.60;;;10.10;;
3259;SDS011;68938;48.150;14.004;2023-05-10T05:37:53;13.17;;;9.93;;
3259;SDS011;68938;48.150;14.004;2023-05-10T05:40:20;16.97;;;11.17;;
3259;SDS011;68938;48.150;14.004;2023-05-10T05:42:47;13.33;;;10.97;;
3259;SDS011;68938;48.150;14.004;2023-05-10T05:45:14;18.33;;;13.40;;
3259;SDS011;68938;48.150;14.004;2023-05-10T05:47:41;15.37;;;11.60;;
3259;SDS011;68938;48.150;14.004;2023-05-10T05:50:09;12.73;;;11.40;;
3259;SDS011;68938;48.150;14.004;2023-05-10T05:52:36;15.70;;;11.90;;
3259;SDS011;68938;48.150;14.004;2023-05-10T05:55:03;11.60;;;10.50;;
3259;SDS011;68938;48.150;14.004;2023-05-10T05:57:30;14.07;;;12.37;;
3259;SDS011;68938;48.150;14.004;2023-05-10T05:59:57;13.37;;;12.00;;
3259;SDS011;68938;48.150;14.004;2023-05-10T06:02:24;14.40;;;12.93;;
3259;SDS011;68938;48.150;14.004;2023-05-10T06:04:51;17.00;;;14.00;;
3259;SDS011;68938;48.150;14.004;2023-05-10T06:07:18;14.77;;;13.30;;
3259;SDS011;68938;48.150;14.004;2023-05-10T06:09:45;54.60;;;20.00;;
3259;SDS011;68938;48.150;14.004;2023-05-10T06:12:12;13.17;;;11.70;;
3259;SDS011;68938;48.150;14.004;2023-05-10T06:14:39;15.13;;;13.50;;
3259;SDS011;68938;48.150;14.004;2023-05-10T06:17:06;45.83;;;21.83;;
3259;SDS011;68938;48.150;14.004;2023-05-10T06:19:33;19.30;;;14.57;;
3259;SDS011;68938;48.150;14.004;2023-05-10T06:22:00;13.80;;;12.40;;
3259;SDS011;68938;48.150;14.004;2023-05-10T06:24:26;14.50;;;13.10;;
3259;SDS011;68938;48.150;14.004;2023-05-10T06:26:53;15.27;;;13.67;;
3259;SDS011;68938;48.150;14.004;2023-05-10T06:29:20;15.17;;;13.57;;
3259;SDS011;68938;48.150;14.004;2023-05-10T06:31:47;15.27;;;13.73;;
3259;SDS011;68938;48.150;14.004;2023-05-10T06:34:14;15.47;;;13.87;;
3259;SDS011;68938;48.150;14.004;2023-05-10T06:36:41;16.33;;;13.97;;
3259;SDS011;68938;48.150;14.004;2023-05-10T06:39:08;17.20;;;13.43;;
3259;SDS011;68938;48.150;14.004;2023-05-10T06:41:35;22.50;;;16.07;;
3259;SDS011;68938;48.150;14.004;2023-05-10T06:44:02;14.77;;;13.30;;
3259;SDS011;68938;48.150;14.004;2023-05-10T06:46:28;15.07;;;13.57;;
3259;SDS011;68938;48.150;14.004;2023-05-10T06:48:56;15.07;;;13.67;;
3259;SDS011;68938;48.150;14.004;2023-05-10T06:51:22;30.70;;;18.47;;
3259;SDS011;68938;48.150;14.004;2023-05-10T06:53:49;31.23;;;21.23;;
3259;SDS011;68938;48.150;14.004;2023-05-10T06:56:16;20.80;;;17.70;;
3259;SDS011;68938;48.150;14.004;2023-05-10T06:58:43;17.60;;;15.80;;
3259;SDS011;68938;48.150;14.004;2023-05-10T07:01:10;19.53;;;15.83;;
3259;SDS011;68938;48.150;14.004;2023-05-10T07:03:37;16.20;;;14.50;;
3259;SDS011;68938;48.150;14.004;2023-05-10T07:06:04;16.00;;;14.40;;
3259;SDS011;68938;48.150;14.004;2023-05-10T07:08:31;16.70;;;15.03;;
3259;SDS011;68938;48.150;14.004;2023-05-10T07:11:05;14.33;;;12.80;;
3259;SDS011;68938;48.150;14.004;2023-05-10T07:13:33;16.17;;;14.60;;
3259;SDS011;68938;48.150;14.004;2023-05-10T07:16:00;15.43;;;13.40;;
3259;SDS011;68938;48.150;14.004;2023-05-10T07:18:27;14.43;;;13.03;;
3259;SDS011;68938;48.150;14.004;2023-05-10T07:20:54;14.37;;;12.87;;
3259;SDS011;68938;48.150;14.004;2023-05-10T07:23:23;14.37;;;12.93;;
3259;SDS011;68938;48.150;14.004;2023-05-10T07:25:50;15.27;;;13.90;;
3259;SDS011;68938;48.150;14.004;2023-05-10T07:28:17;14.57;;;13.27;;
3259;SDS011;68938;48.150;14.004;2023-05-10T07:30:45;15.60;;;14.00;;
3259;SDS011;68938;48.150;14.004;2023-05-10T07:33:12;15.57;;;14.17;;
3259;SDS011;68938;48.150;14.004;2023-05-10T07:35:41;16.27;;;14.67;;
3259;SDS011;68938;48.150;14.004;2023-05-10T07:38:09;16.00;;;14.30;;
3259;SDS011;68938;48.150;14.004;2023-05-10T07:40:35;14.40;;;13.10;;
3259;SDS011;68938;48.150;14.004;2023-05-10T07:43:03;14.47;;;13.17;;
3259;SDS011;68938;48.150;14.004;2023-05-10T07:45:30;12.47;;;11.37;;
3259;SDS011;68938;48.150;14.004;2023-05-10T07:47:57;14.17;;;12.90;;
3259;SDS011;68938;48.150;14.004;2023-05-10T07:50:24;14.37;;;12.87;;
3259;SDS011;68938;48.150;14.004;2023-05-10T07:52:50;12.93;;;11.83;;
3259;SDS011;68938;48.150;14.004;2023-05-10T07:55:18;14.63;;;13.17;;
3259;SDS011;68938;48.150;14.004;2023-05-10T07:57:45;13.83;;;12.63;;
3259;SDS011;68938;48.150;14.004;2023-05-10T08:00:12;13.00;;;11.80;;
3259;SDS011;68938;48.150;14.004;2023-05-10T08:02:43;14.93;;;13.43;;
3259;SDS011;68938;48.150;14.004;2023-05-10T08:05:10;14.23;;;12.93;;
3259;SDS011;68938;48.150;14.004;2023-05-10T08:07:37;13.83;;;12.67;;
3259;SDS011;68938;48.150;14.004;2023-05-10T08:10:05;13.13;;;11.87;;
3259;SDS011;68938;48.150;14.004;2023-05-10T08:12:33;13.77;;;12.50;;
3259;SDS011;68938;48.150;14.004;2023-05-10T08:15:00;12.53;;;11.33;;
3259;SDS011;68938;48.150;14.004;2023-05-10T08:17:27;13.60;;;12.40;;
3259;SDS011;68938;48.150;14.004;2023-05-10T08:19:54;14.70;;;13.20;;
3259;SDS011;68938;48.150;14.004;2023-05-10T08:22:21;14.20;;;12.90;;
3259;SDS011;68938;48.150;14.004;2023-05-10T08:24:48;13.30;;;12.10;;
3259;SDS011;68938;48.150;14.004;2023-05-10T08:27:15;14.63;;;13.33;;
3259;SDS011;68938;48.150;14.004;2023-05-10T08:29:42;16.50;;;12.50;;
3259;SDS011;68938;48.150;14.004;2023-05-10T08:32:15;13.87;;;12.60;;
3259;SDS011;68938;48.150;14.004;2023-05-10T08:34:43;13.00;;;11.90;;
3259;SDS011;68938;48.150;14.004;2023-05-10T08:37:10;15.40;;;13.40;;
3259;SDS011;68938;48.150;14.004;2023-05-10T08:39:37;13.93;;;12.70;;
3259;SDS011;68938;48.150;14.004;2023-05-10T08:42:04;15.93;;;14.53;;
3259;SDS011;68938;48.150;14.004;2023-05-10T08:44:32;16.03;;;14.70;;
3259;SDS011;68938;48.150;14.004;2023-05-10T08:47:04;17.23;;;15.57;;
3259;SDS011;68938;48.150;14.004;2023-05-10T08:49:33;18.10;;;16.40;;
3259;SDS011;68938;48.150;14.004;2023-05-10T08:52:02;16.13;;;14.53;;
3259;SDS011;68938;48.150;14.004;2023-05-10T08:54:31;16.63;;;13.33;;
3259;SDS011;68938;48.150;14.004;2023-05-10T08:56:59;17.33;;;15.40;;
3259;SDS011;68938;48.150;14.004;2023-05-10T08:59:27;18.50;;;16.50;;
3259;SDS011;68938;48.150;14.004;2023-05-10T09:01:55;19.73;;;17.60;;
3259;SDS011;68938;48.150;14.004;2023-05-10T09:04:24;17.47;;;15.70;;
3259;SDS011;68938;48.150;14.004;2023-05-10T09:06:52;18.40;;;15.83;;
3259;SDS011;68938;48.150;14.004;2023-05-10T09:09:19;18.97;;;15.70;;
3259;SDS011;68938;48.150;14.004;2023-05-10T09:11:47;19.53;;;17.53;;
3259;SDS011;68938;48.150;14.004;2023-05-10T09:14:15;16.67;;;14.97;;
3259;SDS011;68938;48.150;14.004;2023-05-10T09:16:43;17.83;;;15.23;;
3259;SDS011;68938;48.150;14.004;2023-05-10T09:19:10;14.47;;;13.17;;
3259;SDS011;68938;48.150;14.004;2023-05-10T09:21:37;13.67;;;12.37;;
3259;SDS011;68938;48.150;14.004;2023-05-10T09:24:05;16.20;;;12.90;;
3259;SDS011;68938;48.150;14.004;2023-05-10T09:26:34;14.23;;;12.93;;
3259;SDS011;68938;48.150;14.004;2023-05-10T09:29:02;14.37;;;12.77;;
3259;SDS011;68938;48.150;14.004;2023-05-10T09:31:49;12.97;;;11.67;;
3259;SDS011;68938;48.150;14.004;2023-05-10T09:34:19;13.93;;;12.63;;
3259;SDS011;68938;48.150;14.004;2023-05-10T09:37:00;14.37;;;13.00;;
3259;SDS011;68938;48.150;14.004;2023-05-10T09:39:36;14.77;;;13.53;;
3259;SDS011;68938;48.150;14.004;2023-05-10T09:42:07;15.00;;;13.23;;
3259;SDS011;68938;48.150;14.004;2023-05-10T09:44:36;13.53;;;12.23;;
3259;SDS011;68938;48.150;14.004;2023-05-10T09:47:03;13.93;;;12.63;;
3259;SDS011;68938;48.150;14.004;2023-05-10T09:49:30;13.50;;;12.30;;
3259;SDS011;68938;48.150;14.004;2023-05-10T09:52:04;15.27;;;13.77;;
3259;SDS011;68938;48.150;14.004;2023-05-10T09:54:33;16.80;;;15.10;;
3259;SDS011;68938;48.150;14.004;2023-05-10T09:57:01;15.63;;;14.23;;
3259;SDS011;68938;48.150;14.004;2023-05-10T09:59:28;15.60;;;14.37;;
3259;SDS011;68938;48.150;14.004;2023-05-10T10:01:57;14.63;;;13.37;;
3259;SDS011;68938;48.150;14.004;2023-05-10T10:04:26;16.03;;;14.60;;
3259;SDS011;68938;48.150;14.004;2023-05-10T10:07:01;17.40;;;15.70;;
3259;SDS011;68938;48.150;14.004;2023-05-10T10:09:30;17.90;;;16.05;;
3259;SDS011;68938;48.150;14.004;2023-05-10T10:11:59;18.40;;;16.60;;
3259;SDS011;68938;48.150;14.004;2023-05-10T10:14:28;17.90;;;15.93;;
3259;SDS011;68938;48.150;14.004;2023-05-10T10:16:55;18.93;;;17.23;;
3259;SDS011;68938;48.150;14.004;2023-05-10T10:19:34;18.07;;;16.27;;
3259;SDS011;68938;48.150;14.004;2023-05-10T10:22:02;17.27;;;15.60;;
3259;SDS011;68938;48.150;14.004;2023-05-10T10:24:29;16.70;;;14.93;;
3259;SDS011;68938;48.150;14.004;2023-05-10T10:26:57;17.43;;;15.90;;
3259;SDS011;68938;48.150;14.004;2023-05-10T10:35:58;17.90;;;15.50;;
3259;SDS011;68938;48.150;14.004;2023-05-10T10:41:34;16.90;;;15.20;;
3259;SDS011;68938;48.150;14.004;2023-05-10T10:52:22;16.60;;;15.20;;
3259;SDS011;68938;48.150;14.004;2023-05-10T10:57:31;19.00;;;17.40;;
3259;SDS011;68938;48.150;14.004;2023-05-10T11:00:22;18.70;;;17.10;;
3259;SDS011;68938;48.150;14.004;2023-05-10T11:02:57;17.20;;;15.70;;
3259;SDS011;68938;48.150;14.004;2023-05-10T11:05:48;12.17;;;11.00;;
3259;SDS011;68938;48.150;14.004;2023-05-10T11:08:21;13.67;;;12.37;;
3259;SDS011;68938;48.150;14.004;2023-05-10T11:13:33;4.27;;;3.93;;
3259;SDS011;68938;48.150;14.004;2023-05-10T11:16:11;3.57;;;3.37;;
3259;SDS011;68938;48.150;14.004;2023-05-10T11:19:02;3.50;;;3.30;;
3259;SDS011;68938;48.150;14.004;2023-05-10T11:21:31;4.13;;;3.93;;
3259;SDS011;68938;48.150;14.004;2023-05-10T11:24:01;3.97;;;3.67;;
3259;SDS011;68938;48.150;14.004;2023-05-10T11:26:32;2.77;;;2.67;;
3259;SDS011;68938;48.150;14.004;2023-05-10T11:29:03;3.40;;;3.30;;
3259;SDS011;68938;48.150;14.004;2023-05-10T11:31:30;14.13;;;4.03;;
3259;SDS011;68938;48.150;14.004;2023-05-10T11:33:57;3.20;;;3.00;;
3259;SDS011;68938;48.150;14.004;2023-05-10T11:36:26;3.70;;;3.40;;
3259;SDS011;68938;48.150;14.004;2023-05-10T11:38:56;3.10;;;3.00;;
3259;SDS011;68938;48.150;14.004;2023-05-10T11:41:24;3.73;;;2.80;;
3259;SDS011;68938;48.150;14.004;2023-05-10T11:43:54;3.33;;;3.13;;
3259;SDS011;68938;48.150;14.004;2023-05-10T11:46:27;3.73;;;3.43;;
3259;SDS011;68938;48.150;14.004;2023-05-10T11:48:57;5.00;;;4.60;;
3259;SDS011;68938;48.150;14.004;2023-05-10T11:51:26;3.57;;;3.37;;
3259;SDS011;68938;48.150;14.004;2023-05-10T11:53:54;3.23;;;3.13;;
3259;SDS011;68938;48.150;14.004;2023-05-10T11:56:23;3.10;;;3.00;;
3259;SDS011;68938;48.150;14.004;2023-05-10T11:58:54;3.27;;;3.17;;
3259;SDS011;68938;48.150;14.004;2023-05-10T12:01:24;3.27;;;2.97;;
3259;SDS011;68938;48.150;14.004;2023-05-10T12:03:54;7.10;;;3.20;;
3259;SDS011;68938;48.150;14.004;2023-05-10T12:06:25;3.60;;;3.40;;
3259;SDS011;68938;48.150;14.004;2023-05-10T12:08:58;4.07;;;3.87;;
3259;SDS011;68938;48.150;14.004;2023-05-10T12:11:25;3.33;;;3.03;;
3259;SDS011;68938;48.150;14.004;2023-05-10T12:13:55;4.03;;;3.20;;
3259;SDS011;68938;48.150;14.004;2023-05-10T12:16:23;4.73;;;4.20;;
3259;SDS011;68938;48.150;14.004;2023-05-10T12:18:53;2.10;;;2.00;;
3259;SDS011;68938;48.150;14.004;2023-05-10T12:21:23;1.70;;;1.70;;
3259;SDS011;68938;48.150;14.004;2023-05-10T12:23:52;2.30;;;1.57;;
3259;SDS011;68938;48.150;14.004;2023-05-10T12:26:21;1.60;;;1.60;;
3259;SDS011;68938;48.150;14.004;2023-05-10T12:28:50;1.40;;;1.40;;
3259;SDS011;68938;48.150;14.004;2023-05-10T12:31:17;2.03;;;1.93;;
3259;SDS011;68938;48.150;14.004;2023-05-10T12:33:44;2.30;;;2.20;;
3259;SDS011;68938;48.150;14.004;2023-05-10T12:36:13;4.87;;;2.70;;
3259;SDS011;68938;48.150;14.004;2023-05-10T12:38:42;2.90;;;2.70;;
3259;SDS011;68938;48.150;14.004;2023-05-10T12:41:12;2.43;;;2.30;;
3259;SDS011;68938;48.150;14.004;2023-05-10T12:43:42;2.63;;;2.53;;
3259;SDS011;68938;48.150;14.004;2023-05-10T12:46:10;2.90;;;2.80;;
3259;SDS011;68938;48.150;14.004;2023-05-10T12:48:40;2.57;;;2.47;;
3259;SDS011;68938;48.150;14.004;2023-05-10T12:51:09;2.93;;;2.63;;
3259;SDS011;68938;48.150;14.004;2023-05-10T12:53:37;3.70;;;2.80;;
3259;SDS011;68938;48.150;14.004;2023-05-10T12:56:07;2.97;;;2.87;;
3259;SDS011;68938;48.150;14.004;2023-05-10T12:58:34;2.90;;;1.90;;
3259;SDS011;68938;48.150;14.004;2023-05-10T13:01:01;2.30;;;2.20;;
3259;SDS011;68938;48.150;14.004;2023-05-10T13:03:29;2.00;;;1.90;;
3259;SDS011;68938;48.150;14.004;2023-05-10T13:05:56;1.73;;;1.73;;
3259;SDS011;68938;48.150;14.004;2023-05-10T13:08:23;1.93;;;1.90;;
3259;SDS011;68938;48.150;14.004;2023-05-10T13:10:50;2.07;;;1.97;;
3259;SDS011;68938;48.150;14.004;2023-05-10T13:13:17;2.80;;;2.70;;
3259;SDS011;68938;48.150;14.004;2023-05-10T13:15:44;2.60;;;2.43;;
3259;SDS011;68938;48.150;14.004;2023-05-10T13:18:11;2.17;;;2.07;;
3259;SDS011;68938;48.150;14.004;2023-05-10T13:20:38;2.27;;;2.17;;
3259;SDS011;68938;48.150;14.004;2023-05-10T13:23:05;2.40;;;2.30;;
3259;SDS011;68938;48.150;14.004;2023-05-10T13:25:31;2.70;;;2.50;;
3259;SDS011;68938;48.150;14.004;2023-05-10T13:27:58;2.87;;;2.77;;
3259;SDS011;68938;48.150;14.004;2023-05-10T13:30:25;2.20;;;2.10;;
3259;SDS011;68938;48.150;14.004;2023-05-10T13:32:52;1.93;;;1.83;;
3259;SDS011;68938;48.150;14.004;2023-05-10T13:35:19;1.53;;;1.53;;
3259;SDS011;68938;48.150;14.004;2023-05-10T13:37:46;1.83;;;1.73;;
3259;SDS011;68938;48.150;14.004;2023-05-10T13:40:13;2.00;;;1.90;;
3259;SDS011;68938;48.150;14.004;2023-05-10T13:42:40;2.03;;;2.00;;
3259;SDS011;68938;48.150;14.004;2023-05-10T13:45:07;2.03;;;2.03;;
3259;SDS011;68938;48.150;14.004;2023-05-10T13:47:35;2.17;;;2.07;;
3259;SDS011;68938;48.150;14.004;2023-05-10T13:50:02;2.20;;;2.10;;
3259;SDS011;68938;48.150;14.004;2023-05-10T13:52:28;2.10;;;1.90;;
3259;SDS011;68938;48.150;14.004;2023-05-10T13:54:55;1.70;;;1.70;;
3259;SDS011;68938;48.150;14.004;2023-05-10T13:57:22;2.33;;;2.13;;
3259;SDS011;68938;48.150;14.004;2023-05-10T13:59:49;1.90;;;1.80;;
3259;SDS011;68938;48.150;14.004;2023-05-10T14:02:17;2.13;;;2.03;;
3259;SDS011;68938;48.150;14.004;2023-05-10T14:04:44;2.20;;;2.10;;
3259;SDS011;68938;48.150;14.004;2023-05-10T14:07:11;1.87;;;1.77;;
3259;SDS011;68938;48.150;14.004;2023-05-10T14:09:38;2.60;;;2.50;;
3259;SDS011;68938;48.150;14.004;2023-05-10T14:12:05;2.40;;;2.30;;
3259;SDS011;68938;48.150;14.004;2023-05-10T14:14:32;2.93;;;2.83;;
3259;SDS011;68938;48.150;14.004;2023-05-10T14:16:59;3.30;;;3.20;;
3259;SDS011;68938;48.150;14.004;2023-05-10T14:19:25;2.93;;;2.83;;
3259;SDS011;68938;48.150;14.004;2023-05-10T14:21:52;3.40;;;3.10;;
3259;SDS011;68938;48.150;14.004;2023-05-10T14:24:19;4.57;;;4.27;;
3259;SDS011;68938;48.150;14.004;2023-05-10T14:26:46;3.90;;;3.80;;
3259;SDS011;68938;48.150;14.004;2023-05-10T14:29:13;3.90;;;3.50;;
3259;SDS011;68938;48.150;14.004;2023-05-10T14:31:40;3.57;;;3.37;;
3259;SDS011;68938;48.150;14.004;2023-05-10T14:34:07;4.07;;;3.50;;
3259;SDS011;68938;48.150;14.004;2023-05-10T14:36:34;4.10;;;3.80;;
3259;SDS011;68938;48.150;14.004;2023-05-10T14:39:01;4.13;;;3.93;;
3259;SDS011;68938;48.150;14.004;2023-05-10T14:41:28;4.30;;;4.00;;
3259;SDS011;68938;48.150;14.004;2023-05-10T14:43:55;4.23;;;3.93;;
3259;SDS011;68938;48.150;14.004;2023-05-10T14:46:22;4.73;;;4.47;;
3259;SDS011;68938;48.150;14.004;2023-05-10T14:48:49;4.30;;;4.07;;
3259;SDS011;68938;48.150;14.004;2023-05-10T14:51:16;3.20;;;3.10;;
3259;SDS011;68938;48.150;14.004;2023-05-10T14:53:43;4.07;;;3.77;;
3259;SDS011;68938;48.150;14.004;2023-05-10T14:56:10;3.43;;;3.23;;
3259;SDS011;68938;48.150;14.004;2023-05-10T14:58:37;2.10;;;2.00;;
3259;SDS011;68938;48.150;14.004;2023-05-10T15:01:04;2.00;;;1.50;;
3259;SDS011;68938;48.150;14.004;2023-05-10T15:03:31;1.73;;;1.63;;
3259;SDS011;68938;48.150;14.004;2023-05-10T15:05:59;2.00;;;1.90;;
3259;SDS011;68938;48.150;14.004;2023-05-10T15:08:26;1.40;;;1.30;;
3259;SDS011;68938;48.150;14.004;2023-05-10T15:10:53;1.33;;;1.33;;
3259;SDS011;68938;48.150;14.004;2023-05-10T15:13:19;1.17;;;1.17;;
3259;SDS011;68938;48.150;14.004;2023-05-10T15:15:46;1.27;;;1.27;;
3259;SDS011;68938;48.150;14.004;2023-05-10T15:18:13;1.83;;;1.83;;
3259;SDS011;68938;48.150;14.004;2023-05-10T15:20:40;2.30;;;2.20;;
3259;SDS011;68938;48.150;14.004;2023-05-10T15:23:07;3.27;;;3.17;;
3259;SDS011;68938;48.150;14.004;2023-05-10T15:25:34;3.10;;;2.90;;
3259;SDS011;68938;48.150;14.004;2023-05-10T15:28:01;3.00;;;2.90;;